createdAt,value
2018-12-13T00:00:31.657Z,83.70
2018-12-13T00:02:36.051Z,83.40
2018-12-13T00:04:40.481Z,83.30
2018-12-13T00:06:44.858Z,83.70
2018-12-13T00:08:49.219Z,83.60
2018-12-13T00:10:54.440Z,83.30
2018-12-13T00:12:58.896Z,83.40
2018-12-13T00:15:03.411Z,83.70
2018-12-13T00:17:07.911Z,83.20
2018-12-13T00:19:12.302Z,83.40
2018-12-13T00:21:16.713Z,83.50
2018-12-13T00:23:21.148Z,83.60
2018-12-13T00:25:25.591Z,82.70
2018-12-13T00:27:30.068Z,83.10
2018-12-13T00:29:34.449Z,83.60
2018-12-13T00:31:38.891Z,83.20
2018-12-13T00:33:43.251Z,82.90
2018-12-13T00:35:47.690Z,83.30
2018-12-13T00:37:52.057Z,82.80
2018-12-13T00:39:56.400Z,83.20
2018-12-13T00:42:00.863Z,83.10
2018-12-13T00:44:05.264Z,83.80
2018-12-13T00:46:09.782Z,83.30
2018-12-13T00:48:14.239Z,83.20
2018-12-13T00:50:18.761Z,83.10
2018-12-13T00:52:23.208Z,83.10
2018-12-13T00:54:27.587Z,83.00
2018-12-13T00:56:31.967Z,83.00
2018-12-13T00:58:36.354Z,82.90
2018-12-13T01:00:40.786Z,83.40
2018-12-13T01:02:45.218Z,83.00
2018-12-13T01:04:49.608Z,82.70
2018-12-13T01:06:54.373Z,82.90
2018-12-13T01:08:58.787Z,82.80
2018-12-13T01:11:03.175Z,83.00
2018-12-13T01:13:07.641Z,82.50
2018-12-13T01:15:12.117Z,82.20
2018-12-13T01:17:16.494Z,82.90
2018-12-13T01:19:20.910Z,82.70
2018-12-13T01:21:25.951Z,82.50
2018-12-13T01:23:30.366Z,82.80
2018-12-13T01:25:34.732Z,82.50
2018-12-13T01:27:39.176Z,82.10
2018-12-13T01:29:43.566Z,81.80
2018-12-13T01:31:47.962Z,82.00
2018-12-13T01:33:52.810Z,82.50
2018-12-13T01:35:57.346Z,81.70
2018-12-13T01:38:01.753Z,81.80
2018-12-13T01:40:06.191Z,82.00
2018-12-13T01:42:10.735Z,82.30
2018-12-13T01:44:15.091Z,82.10
2018-12-13T01:46:19.464Z,82.30
2018-12-13T01:48:23.909Z,82.50
2018-12-13T01:50:28.343Z,82.70
2018-12-13T01:52:32.763Z,83.10
2018-12-13T01:54:37.129Z,82.90
2018-12-13T01:56:41.589Z,83.10
2018-12-13T01:58:46.071Z,83.70
2018-12-13T02:00:50.489Z,84.10
2018-12-13T02:02:54.920Z,83.60
2018-12-13T02:04:59.386Z,83.70
2018-12-13T02:07:03.984Z,83.40
2018-12-13T02:09:08.420Z,84.00
2018-12-13T02:11:12.955Z,84.20
2018-12-13T02:13:17.310Z,83.70
2018-12-13T02:15:21.698Z,84.00
2018-12-13T02:17:26.084Z,84.00
2018-12-13T02:19:30.664Z,83.60
2018-12-13T02:21:35.073Z,82.90
2018-12-13T02:23:39.442Z,83.00
2018-12-13T02:25:43.905Z,82.60
2018-12-13T02:27:48.263Z,81.90
2018-12-13T02:29:52.669Z,82.10
2018-12-13T02:31:57.062Z,82.40
2018-12-13T02:34:01.510Z,81.80
2018-12-13T02:36:05.955Z,82.60
2018-12-13T02:38:10.427Z,82.00
2018-12-13T02:40:14.898Z,82.60
2018-12-13T02:42:19.280Z,82.40
2018-12-13T02:44:23.875Z,82.50
2018-12-13T02:46:28.217Z,82.60
2018-12-13T02:48:32.594Z,82.80
2018-12-13T02:50:37.005Z,82.10
2018-12-13T02:52:41.417Z,82.60
2018-12-13T02:54:46.395Z,82.50
2018-12-13T02:56:50.787Z,82.70
2018-12-13T02:58:55.208Z,82.30
2018-12-13T03:00:59.627Z,82.20
2018-12-13T03:03:04.091Z,82.50
2018-12-13T03:05:08.562Z,82.90
2018-12-13T03:07:14.056Z,82.90
2018-12-13T03:09:17.349Z,82.60
2018-12-13T03:11:21.762Z,83.10
2018-12-13T03:13:26.232Z,82.90
2018-12-13T03:15:30.724Z,82.50
2018-12-13T03:17:35.137Z,82.90
2018-12-13T03:19:39.540Z,82.60
2018-12-13T03:21:43.959Z,82.70
2018-12-13T03:23:48.426Z,83.60
2018-12-13T03:25:52.891Z,83.00
2018-12-13T03:27:57.270Z,82.90
2018-12-13T03:30:01.727Z,82.50
2018-12-13T03:32:06.243Z,83.00
2018-12-13T03:34:10.689Z,83.00
2018-12-13T03:36:15.119Z,83.00
2018-12-13T03:38:19.508Z,82.50
2018-12-13T03:40:23.883Z,82.40
2018-12-13T03:42:28.271Z,83.00
2018-12-13T03:44:32.843Z,82.90
2018-12-13T03:46:37.291Z,83.10
2018-12-13T03:48:41.686Z,83.10
2018-12-13T03:50:46.100Z,83.10
2018-12-13T03:52:50.524Z,82.50
2018-12-13T03:54:54.882Z,82.60
2018-12-13T03:56:59.222Z,82.90
2018-12-13T03:59:03.831Z,82.20
2018-12-13T04:01:08.216Z,83.40
2018-12-13T04:03:12.697Z,82.40
2018-12-13T04:05:17.323Z,82.50
2018-12-13T04:07:27.611Z,82.60
2018-12-13T04:09:26.160Z,82.50
2018-12-13T04:11:30.513Z,82.40
2018-12-13T04:13:34.894Z,82.80
2018-12-13T04:15:39.268Z,82.20
2018-12-13T04:17:43.609Z,81.90
2018-12-13T04:19:47.961Z,82.90
2018-12-13T04:21:52.356Z,82.60
2018-12-13T04:23:56.701Z,82.10
2018-12-13T04:26:01.123Z,82.50
2018-12-13T04:28:05.588Z,82.50
2018-12-13T04:30:10.035Z,82.20
2018-12-13T04:32:14.449Z,82.20
2018-12-13T04:34:19.867Z,82.10
2018-12-13T04:36:24.222Z,82.60
2018-12-13T04:38:28.566Z,82.40
2018-12-13T04:40:33.564Z,81.60
2018-12-13T04:42:37.957Z,82.00
2018-12-13T04:44:42.318Z,82.40
2018-12-13T04:46:46.731Z,82.20
2018-12-13T04:48:51.949Z,82.20
2018-12-13T04:50:56.370Z,82.20
2018-12-13T04:53:00.782Z,82.50
2018-12-13T04:55:05.325Z,82.20
2018-12-13T04:57:09.695Z,82.40
2018-12-13T04:59:14.199Z,82.40
2018-12-13T05:01:18.607Z,82.10
2018-12-13T05:03:22.958Z,82.10
2018-12-13T05:05:27.362Z,81.80
2018-12-13T05:07:31.731Z,82.30
2018-12-13T05:09:36.156Z,82.40
2018-12-13T05:11:40.567Z,82.10
2018-12-13T05:13:44.982Z,82.50
2018-12-13T05:15:49.551Z,82.30
2018-12-13T05:17:53.960Z,82.30
2018-12-13T05:19:58.327Z,82.40
2018-12-13T05:22:02.805Z,82.40
2018-12-13T05:24:07.294Z,82.20
2018-12-13T05:26:11.685Z,82.80
2018-12-13T05:28:16.164Z,82.70
2018-12-13T05:30:20.664Z,82.40
2018-12-13T05:32:25.045Z,82.90
2018-12-13T05:34:29.483Z,82.70
2018-12-13T05:36:33.948Z,82.20
2018-12-13T05:38:38.375Z,82.60
2018-12-13T05:40:42.825Z,82.90
2018-12-13T05:42:47.279Z,82.30
2018-12-13T05:44:52.256Z,81.80
2018-12-13T05:46:56.615Z,82.80
2018-12-13T05:49:01.062Z,82.40
2018-12-13T05:51:05.455Z,82.60
2018-12-13T05:53:10.501Z,82.90
2018-12-13T05:55:14.961Z,82.60
2018-12-13T05:57:19.430Z,82.20
2018-12-13T05:59:23.862Z,82.40
2018-12-13T06:01:28.322Z,82.30
2018-12-13T06:03:32.700Z,82.00
2018-12-13T06:05:37.148Z,82.40
2018-12-13T06:07:41.526Z,82.50
2018-12-13T06:09:45.929Z,83.20
2018-12-13T06:11:50.365Z,82.80
2018-12-13T06:13:55.770Z,82.80
2018-12-13T06:16:00.188Z,83.20
2018-12-13T06:18:06.972Z,82.70
2018-12-13T06:20:09.553Z,82.90
2018-12-13T06:22:14.033Z,83.00
2018-12-13T06:24:18.498Z,83.10
2018-12-13T06:26:23.091Z,82.90
2018-12-13T06:28:27.538Z,82.70
2018-12-13T06:30:32.007Z,83.10
2018-12-13T06:32:36.359Z,82.60
2018-12-13T06:34:41.350Z,82.50
2018-12-13T06:36:45.827Z,82.20
2018-12-13T06:38:50.230Z,82.20
2018-12-13T06:41:01.303Z,82.00
2018-12-13T06:43:05.702Z,82.40
2018-12-13T06:45:10.197Z,82.20
2018-12-13T06:47:14.671Z,82.50
2018-12-13T06:49:19.055Z,82.60
2018-12-13T06:51:23.449Z,82.50
2018-12-13T06:53:27.891Z,82.50
2018-12-13T06:55:32.337Z,82.10
2018-12-13T06:57:36.691Z,82.10
2018-12-13T06:59:47.890Z,82.20
2018-12-13T07:01:52.229Z,82.80
2018-12-13T07:03:56.664Z,82.70
2018-12-13T07:06:01.098Z,82.30
2018-12-13T07:08:07.959Z,82.40
2018-12-13T07:10:10.042Z,82.60
2018-12-13T07:12:14.458Z,82.40
2018-12-13T07:14:18.897Z,82.80
2018-12-13T07:16:23.279Z,82.50
2018-12-13T07:18:27.680Z,82.30
2018-12-13T07:20:32.111Z,82.70
2018-12-13T07:22:36.650Z,82.30
2018-12-13T07:24:41.128Z,82.20
2018-12-13T07:26:45.567Z,82.30
2018-12-13T07:28:49.904Z,82.70
2018-12-13T07:30:54.314Z,82.30
2018-12-13T07:32:59.237Z,82.70
2018-12-13T07:35:03.775Z,82.10
2018-12-13T07:37:08.233Z,82.60
2018-12-13T07:39:12.647Z,82.30
2018-12-13T07:41:17.054Z,82.20
2018-12-13T07:43:21.551Z,82.90
2018-12-13T07:45:26.051Z,83.00
2018-12-13T07:47:30.491Z,82.60
2018-12-13T07:49:34.846Z,82.40
2018-12-13T07:51:39.210Z,82.50
2018-12-13T07:53:43.611Z,82.40
2018-12-13T07:55:47.998Z,82.20
2018-12-13T07:57:52.378Z,82.30
2018-12-13T07:59:56.783Z,82.70
2018-12-13T08:02:01.158Z,82.30
2018-12-13T08:04:05.573Z,82.50
2018-12-13T08:06:10.047Z,82.20
2018-12-13T08:08:20.633Z,82.30
2018-12-13T08:10:18.941Z,83.00
2018-12-13T08:12:23.334Z,82.60
2018-12-13T08:14:27.790Z,82.30
2018-12-13T08:16:32.207Z,82.70
2018-12-13T08:18:36.666Z,82.80
2018-12-13T08:20:41.058Z,82.40
2018-12-13T08:22:45.610Z,82.50
2018-12-13T08:24:50.013Z,82.40
2018-12-13T08:26:54.441Z,83.10
2018-12-13T08:28:58.924Z,82.90
2018-12-13T08:31:03.375Z,82.50
2018-12-13T08:33:07.738Z,82.60
2018-12-13T08:35:12.148Z,82.60
2018-12-13T08:37:16.663Z,82.50
2018-12-13T08:39:21.082Z,82.40
2018-12-13T08:41:25.499Z,82.60
2018-12-13T08:43:29.933Z,82.60
2018-12-13T08:45:34.500Z,82.60
2018-12-13T08:47:39.473Z,82.40
2018-12-13T08:49:43.890Z,82.30
2018-12-13T08:51:48.302Z,82.20
2018-12-13T08:53:52.649Z,82.50
2018-12-13T08:55:57.027Z,82.70
2018-12-13T08:58:01.561Z,82.40
2018-12-13T09:00:06.726Z,82.60
2018-12-13T09:02:11.172Z,82.00
2018-12-13T09:04:15.736Z,82.50
2018-12-13T09:06:20.103Z,82.60
2018-12-13T09:08:24.603Z,82.50
2018-12-13T09:10:29.153Z,82.60
2018-12-13T09:12:33.555Z,82.90
2018-12-13T09:14:38.519Z,82.90
2018-12-13T09:16:42.929Z,82.70
2018-12-13T09:18:47.368Z,83.20
2018-12-13T09:20:51.936Z,82.80
2018-12-13T09:22:56.331Z,82.80
2018-12-13T09:25:00.788Z,82.80
2018-12-13T09:27:05.269Z,82.80
2018-12-13T09:29:09.689Z,83.40
2018-12-13T09:31:14.115Z,82.60
2018-12-13T09:33:18.570Z,83.30
2018-12-13T09:35:22.987Z,82.30
2018-12-13T09:37:27.415Z,82.90
2018-12-13T09:39:31.874Z,82.70
2018-12-13T09:41:36.307Z,83.40
2018-12-13T09:43:40.675Z,82.60
2018-12-13T09:45:45.891Z,82.70
2018-12-13T09:47:50.477Z,82.30
2018-12-13T09:49:54.887Z,81.60
2018-12-13T09:51:59.298Z,82.40
2018-12-13T09:54:03.844Z,83.40
2018-12-13T09:56:08.176Z,82.20
2018-12-13T09:58:12.611Z,81.90
2018-12-13T10:00:17.147Z,81.80
2018-12-13T10:02:21.541Z,81.90
2018-12-13T10:04:25.911Z,81.70
2018-12-13T10:06:30.407Z,82.50
2018-12-13T10:08:34.886Z,82.20
2018-12-13T10:10:39.298Z,82.10
2018-12-13T10:12:43.788Z,81.60
2018-12-13T10:14:48.207Z,81.90
2018-12-13T10:16:52.955Z,82.30
2018-12-13T10:18:57.579Z,81.50
2018-12-13T10:21:02.071Z,81.30
2018-12-13T10:23:06.454Z,82.70
2018-12-13T10:25:10.846Z,81.90
2018-12-13T10:27:15.214Z,81.80
2018-12-13T10:29:19.714Z,81.00
2018-12-13T10:31:24.165Z,82.60
2018-12-13T10:33:28.500Z,83.00
2018-12-13T10:35:33.074Z,81.40
2018-12-13T10:37:37.716Z,80.80
2018-12-13T10:39:42.053Z,81.00
2018-12-13T10:41:46.417Z,82.00
2018-12-13T10:43:50.917Z,80.50
2018-12-13T10:45:55.348Z,79.50
2018-12-13T10:48:01.212Z,80.40
2018-12-13T10:50:06.616Z,80.50
2018-12-13T10:52:11.112Z,79.80
2018-12-13T10:54:15.491Z,80.10
2018-12-13T10:56:19.999Z,79.70
2018-12-13T10:58:24.490Z,81.40
2018-12-13T11:00:34.080Z,80.40
2018-12-13T11:02:53.618Z,80.40
2018-12-13T11:04:58.084Z,80.70
2018-12-13T11:07:08.893Z,78.80
2018-12-13T11:09:13.309Z,78.60
2018-12-13T11:11:17.692Z,79.70
2018-12-13T11:13:22.118Z,77.80
2018-12-13T11:15:26.520Z,78.20
2018-12-13T11:17:30.918Z,80.20
2018-12-13T11:19:35.447Z,77.50
2018-12-13T11:21:39.818Z,78.20
2018-12-13T11:23:44.974Z,77.50
2018-12-13T11:25:48.647Z,78.70
2018-12-13T11:28:13.146Z,79.20
2018-12-13T11:30:24.539Z,79.20
2018-12-13T11:32:28.961Z,79.60
2018-12-13T11:34:34.674Z,79.10
2018-12-13T11:36:39.067Z,77.20
2018-12-13T11:38:43.466Z,77.70
2018-12-13T11:40:47.937Z,79.30
2018-12-13T11:42:52.444Z,77.80
2018-12-13T11:44:56.942Z,77.80
2018-12-13T11:47:01.365Z,76.20
2018-12-13T11:49:11.954Z,78.80
2018-12-13T11:51:10.348Z,80.10
2018-12-13T11:53:14.835Z,77.90
2018-12-13T11:55:39.958Z,76.70
2018-12-13T11:57:44.356Z,78.40
2018-12-13T11:59:49.794Z,77.60
2018-12-13T12:01:54.424Z,77.90
2018-12-13T12:03:58.830Z,78.40
2018-12-13T12:06:03.383Z,78.00
2018-12-13T12:08:07.999Z,78.00
2018-12-13T12:10:12.396Z,77.40
2018-12-13T12:12:16.834Z,77.40
2018-12-13T12:14:21.403Z,77.90
2018-12-13T12:16:25.791Z,77.80
2018-12-13T12:18:30.230Z,78.50
2018-12-13T12:20:34.731Z,78.60
2018-12-13T12:22:39.200Z,78.20
2018-12-13T12:24:43.638Z,77.70
2018-12-13T12:26:48.092Z,78.40
2018-12-13T12:28:52.665Z,77.30
2018-12-13T12:30:57.146Z,77.50
2018-12-13T12:33:01.642Z,75.80
2018-12-13T12:35:06.291Z,77.80
2018-12-13T12:37:10.775Z,77.50
2018-12-13T12:39:18.570Z,78.10
2018-12-13T12:41:19.651Z,76.60
2018-12-13T12:43:24.164Z,76.60
2018-12-13T12:45:28.641Z,77.50
2018-12-13T12:47:33.319Z,75.70
2018-12-13T12:49:37.853Z,77.40
2018-12-13T12:51:42.257Z,76.50
2018-12-13T12:53:46.693Z,76.60
2018-12-13T12:55:51.438Z,76.60
2018-12-13T12:57:55.854Z,77.10
2018-12-13T13:00:00.518Z,77.10
2018-12-13T13:02:05.043Z,77.20
2018-12-13T13:04:09.526Z,75.90
2018-12-13T13:06:13.955Z,75.90
2018-12-13T13:08:18.397Z,77.50
2018-12-13T13:10:22.798Z,77.50
2018-12-13T13:12:27.319Z,77.00
2018-12-13T13:14:31.770Z,77.10
2018-12-13T13:16:36.275Z,76.80
2018-12-13T13:18:40.746Z,77.10
2018-12-13T13:20:45.233Z,77.30
2018-12-13T13:22:50.250Z,76.50
2018-12-13T13:24:54.677Z,77.40
2018-12-13T13:26:59.091Z,76.20
2018-12-13T13:29:03.498Z,76.50
2018-12-13T13:31:07.993Z,77.10
2018-12-13T13:33:13.422Z,77.00
2018-12-13T13:35:17.812Z,77.70
2018-12-13T13:37:22.194Z,76.90
2018-12-13T13:39:31.494Z,77.20
2018-12-13T13:41:31.126Z,76.50
2018-12-13T13:43:35.549Z,76.50
2018-12-13T13:45:39.981Z,76.90
2018-12-13T13:47:44.659Z,76.40
2018-12-13T13:49:49.183Z,76.90
2018-12-13T13:51:53.551Z,76.60
2018-12-13T13:53:58.082Z,77.40
2018-12-13T13:56:02.523Z,77.30
2018-12-13T13:58:06.947Z,77.30
2018-12-13T14:00:11.409Z,76.10
2018-12-13T14:02:16.685Z,76.70
2018-12-13T14:04:21.100Z,76.70
2018-12-13T14:06:25.689Z,76.90
2018-12-13T14:08:30.121Z,76.90
2018-12-13T14:10:34.539Z,76.80
2018-12-13T14:12:38.971Z,76.10
2018-12-13T14:14:43.454Z,75.80
2018-12-13T14:16:47.830Z,76.60
2018-12-13T14:18:52.179Z,75.60
2018-12-13T14:20:57.323Z,75.10
2018-12-13T14:23:01.792Z,75.30
2018-12-13T14:25:06.231Z,75.10
2018-12-13T14:27:10.774Z,75.00
2018-12-13T14:29:15.286Z,75.90
2018-12-13T14:31:19.703Z,76.50
2018-12-13T14:33:24.179Z,76.70
2018-12-13T14:35:28.570Z,76.80
2018-12-13T14:37:33.009Z,77.40
2018-12-13T14:39:37.443Z,76.80
2018-12-13T14:41:41.831Z,76.50
2018-12-13T14:43:47.166Z,76.70
2018-12-13T14:45:51.615Z,76.90
2018-12-13T14:47:58.547Z,76.70
2018-12-13T14:50:06.394Z,77.70
2018-12-13T14:52:10.875Z,76.80
2018-12-13T14:54:15.258Z,76.80
2018-12-13T14:56:19.692Z,77.10
2018-12-13T14:58:24.272Z,76.70
2018-12-13T15:00:28.713Z,76.70
2018-12-13T15:02:33.082Z,77.00
2018-12-13T15:04:38.259Z,77.50
2018-12-13T15:06:42.696Z,77.70
2018-12-13T15:08:47.148Z,77.40
2018-12-13T15:10:51.599Z,77.30
2018-12-13T15:12:56.033Z,77.40
2018-12-13T15:15:00.424Z,78.30
2018-12-13T15:17:05.104Z,77.30
2018-12-13T15:19:09.478Z,77.60
2018-12-13T15:21:14.005Z,77.60
2018-12-13T15:23:18.488Z,78.30
2018-12-13T15:25:22.984Z,78.40
2018-12-13T15:27:27.392Z,77.90
2018-12-13T15:29:33.162Z,77.80
2018-12-13T15:31:37.557Z,78.20
2018-12-13T15:33:41.945Z,78.20
2018-12-13T15:35:46.335Z,78.00
2018-12-13T15:37:50.759Z,77.70
2018-12-13T15:39:57.408Z,78.20
2018-12-13T15:41:59.572Z,77.80
2018-12-13T15:44:04.299Z,77.90
2018-12-13T15:46:08.742Z,77.60
2018-12-13T15:48:13.214Z,78.50
2018-12-13T15:50:17.669Z,78.20
2018-12-13T15:52:22.069Z,78.00
2018-12-13T15:54:26.511Z,78.20
2018-12-13T15:56:31.107Z,77.90
2018-12-13T15:58:35.589Z,78.00
2018-12-13T16:00:39.986Z,78.70
2018-12-13T16:02:44.418Z,78.40
2018-12-13T16:04:48.892Z,78.50
2018-12-13T16:06:53.258Z,78.60
2018-12-13T16:09:04.117Z,78.60
2018-12-13T16:11:08.517Z,78.90
2018-12-13T16:13:12.914Z,78.80
2018-12-13T16:15:17.328Z,78.90
2018-12-13T16:17:21.786Z,78.60
2018-12-13T16:19:26.337Z,78.00
2018-12-13T16:21:30.718Z,78.80
2018-12-13T16:23:36.014Z,78.60
2018-12-13T16:25:40.414Z,78.80
2018-12-13T16:27:44.845Z,78.70
2018-12-13T16:29:49.954Z,78.80
2018-12-13T16:31:54.479Z,79.10
2018-12-13T16:33:58.862Z,78.30
2018-12-13T16:36:03.334Z,78.40
2018-12-13T16:38:07.754Z,78.30
2018-12-13T16:40:12.147Z,78.50
2018-12-13T16:42:16.663Z,78.80
2018-12-13T16:44:21.697Z,78.20
2018-12-13T16:46:26.316Z,78.50
2018-12-13T16:48:30.791Z,78.80
2018-12-13T16:50:35.283Z,78.80
2018-12-13T16:52:39.666Z,79.00
2018-12-13T16:54:44.175Z,78.80
2018-12-13T16:56:48.699Z,79.00
2018-12-13T16:58:53.105Z,78.90
2018-12-13T17:00:58.226Z,78.10
2018-12-13T17:03:12.610Z,79.20
2018-12-13T17:05:17.025Z,79.10
2018-12-13T17:07:21.431Z,78.80
2018-12-13T17:09:25.804Z,79.30
2018-12-13T17:11:30.228Z,78.30
2018-12-13T17:13:34.657Z,78.20
2018-12-13T17:15:39.135Z,78.70
2018-12-13T17:17:47.740Z,77.00
2018-12-13T17:19:52.402Z,77.70
2018-12-13T17:21:56.783Z,77.90
2018-12-13T17:24:01.227Z,77.90
2018-12-13T17:26:05.650Z,78.30
2018-12-13T17:28:10.010Z,76.80
2018-12-13T17:30:14.614Z,77.80
2018-12-13T17:32:18.986Z,78.20
2018-12-13T17:34:23.428Z,77.40
2018-12-13T17:36:27.887Z,77.90
2018-12-13T17:38:32.296Z,78.20
2018-12-13T17:40:36.782Z,78.10
2018-12-13T17:42:41.227Z,78.20
2018-12-13T17:44:45.577Z,78.60
2018-12-13T17:46:50.043Z,78.40
2018-12-13T17:48:54.604Z,78.60
2018-12-13T17:50:59.024Z,78.30
2018-12-13T17:53:03.430Z,78.80
2018-12-13T17:55:08.330Z,77.80
2018-12-13T17:57:12.769Z,78.00
2018-12-13T17:59:17.202Z,77.40
2018-12-13T18:01:24.993Z,78.30
2018-12-13T18:03:29.422Z,78.20
2018-12-13T18:05:33.840Z,77.80
2018-12-13T18:07:38.288Z,77.80
2018-12-13T18:09:42.701Z,77.80
2018-12-13T18:11:52.387Z,78.30
2018-12-13T18:13:56.859Z,78.60
2018-12-13T18:16:07.703Z,77.90
2018-12-13T18:18:12.142Z,78.60
2018-12-13T18:20:16.870Z,78.50
2018-12-13T18:22:21.506Z,78.50
2018-12-13T18:24:26.585Z,78.80
2018-12-13T18:26:31.037Z,79.00
2018-12-13T18:28:35.586Z,78.90
2018-12-13T18:30:39.950Z,78.70
2018-12-13T18:32:44.637Z,79.20
2018-12-13T18:34:49.035Z,79.60
2018-12-13T18:36:53.410Z,79.60
2018-12-13T18:38:58.444Z,79.20
2018-12-13T18:41:02.825Z,79.50
2018-12-13T18:43:07.411Z,79.30
2018-12-13T18:45:11.897Z,79.60
2018-12-13T18:47:16.364Z,79.50
2018-12-13T18:49:20.834Z,80.00
2018-12-13T18:51:25.270Z,80.20
2018-12-13T18:58:50.327Z,80.50
2018-12-13T19:00:54.782Z,80.10
2018-12-13T19:02:59.151Z,79.70
2018-12-13T19:05:03.845Z,79.80
2018-12-13T19:07:08.252Z,79.50
2018-12-13T19:09:12.717Z,79.70
2018-12-13T19:11:20.477Z,80.20
2018-12-13T19:13:25.223Z,80.00
2018-12-13T19:15:29.614Z,80.10
2018-12-13T19:17:34.066Z,80.00
2018-12-13T19:19:38.458Z,80.10
2018-12-13T19:21:42.993Z,80.10
2018-12-13T19:23:47.498Z,80.20
2018-12-13T19:25:51.932Z,80.10
2018-12-13T19:27:56.342Z,80.20
2018-12-13T19:30:00.857Z,79.90
2018-12-13T19:32:06.036Z,80.50
2018-12-13T19:34:10.817Z,80.20
2018-12-13T19:36:15.514Z,80.20
2018-12-13T19:38:20.110Z,80.20
2018-12-13T19:40:24.670Z,80.30
2018-12-13T19:42:29.246Z,81.20
2018-12-13T19:44:36.110Z,80.40
2018-12-13T19:46:40.668Z,80.60
2018-12-13T19:48:45.809Z,80.60
2018-12-13T19:50:50.352Z,80.60
2018-12-13T19:52:54.772Z,80.70
2018-12-13T19:54:59.355Z,80.70
2018-12-13T19:57:04.013Z,80.40
2018-12-13T19:59:08.568Z,80.70
2018-12-13T20:01:14.478Z,80.90
2018-12-13T20:03:19.141Z,80.70
2018-12-13T20:05:23.588Z,80.50
2018-12-13T20:07:28.009Z,80.80
2018-12-13T20:09:32.507Z,80.70
2018-12-13T20:11:37.023Z,80.70
2018-12-13T20:13:41.470Z,80.80
2018-12-13T20:15:46.087Z,80.30
2018-12-13T20:17:51.010Z,80.80
2018-12-13T20:19:55.510Z,80.30
2018-12-13T20:22:00.147Z,80.50
2018-12-13T20:24:04.844Z,80.50
2018-12-13T20:26:09.414Z,80.80
2018-12-13T20:28:14.262Z,80.30
2018-12-13T20:30:18.706Z,80.50
2018-12-13T20:32:23.267Z,80.60
2018-12-13T20:34:27.817Z,80.70
2018-12-13T20:36:32.439Z,80.50
2018-12-13T20:38:36.987Z,80.80
2018-12-13T20:40:41.447Z,80.80
2018-12-13T20:42:45.967Z,80.90
2018-12-13T20:47:24.977Z,80.80
2018-12-13T20:49:29.488Z,80.70
2018-12-13T20:51:34.003Z,80.90
2018-12-13T20:53:38.445Z,80.80
2018-12-13T20:55:43.087Z,80.50
2018-12-13T20:57:54.622Z,80.70
2018-12-13T21:45:23.105Z,80.60
2018-12-13T21:47:27.510Z,80.80
2018-12-13T21:49:32.014Z,80.80
2018-12-13T21:51:36.561Z,81.00
2018-12-13T21:53:41.075Z,81.70
2018-12-13T21:55:45.484Z,80.80
2018-12-13T21:57:51.808Z,80.80
2018-12-13T21:59:56.664Z,81.20
2018-12-13T22:02:01.147Z,80.70
2018-12-13T22:04:05.647Z,80.70
2018-12-13T22:06:10.060Z,80.80
2018-12-13T22:08:14.595Z,80.70
2018-12-13T22:10:19.226Z,80.90
2018-12-13T22:12:23.775Z,81.30
2018-12-13T22:14:30.945Z,80.70
2018-12-13T22:16:35.538Z,81.50
2018-12-13T22:18:40.052Z,81.00
2018-12-13T22:20:44.519Z,81.30
2018-12-13T22:22:49.272Z,81.00
2018-12-13T22:24:53.711Z,81.40
2018-12-13T22:26:59.235Z,81.10
2018-12-13T22:29:03.730Z,81.30
2018-12-13T22:31:08.353Z,81.90
2018-12-13T22:33:12.830Z,81.60
2018-12-13T22:35:19.009Z,81.70
2018-12-13T22:37:23.515Z,81.40
2018-12-13T22:39:27.917Z,81.70
2018-12-13T22:41:32.320Z,81.10
2018-12-13T22:43:37.491Z,81.30
2018-12-13T22:45:43.079Z,81.40
2018-12-13T22:47:47.501Z,81.50
2018-12-13T22:49:56.442Z,81.40
2018-12-13T22:52:01.795Z,81.30
2018-12-13T22:54:14.593Z,81.10
2018-12-13T22:56:31.205Z,81.50
2018-12-13T22:58:44.121Z,81.00
2018-12-13T23:00:48.947Z,81.00
2018-12-13T23:02:53.457Z,80.70
2018-12-13T23:04:57.947Z,81.00
2018-12-13T23:07:02.426Z,81.60
2018-12-13T23:09:07.782Z,81.30
2018-12-13T23:11:12.298Z,81.50
2018-12-13T23:13:16.732Z,81.20
2018-12-13T23:15:21.179Z,81.40
2018-12-13T23:17:25.758Z,81.10
2018-12-13T23:19:30.170Z,81.50
2018-12-13T23:21:34.948Z,81.50
2018-12-13T23:23:39.519Z,81.50
2018-12-13T23:25:48.189Z,81.50
2018-12-13T23:27:52.838Z,81.00
2018-12-13T23:29:57.259Z,81.20
2018-12-13T23:32:01.755Z,81.30
2018-12-13T23:34:06.200Z,81.70
2018-12-13T23:36:10.649Z,81.30
2018-12-13T23:38:15.123Z,80.70
2018-12-13T23:40:19.544Z,80.90
2018-12-13T23:42:23.941Z,81.00
2018-12-13T23:44:28.344Z,80.60
2018-12-13T23:46:32.723Z,81.10
2018-12-13T23:48:37.572Z,80.80
2018-12-13T23:50:42.056Z,81.00
2018-12-13T23:52:46.511Z,81.30
2018-12-13T23:54:51.091Z,81.00
2018-12-13T23:56:55.494Z,81.10
2018-12-13T23:59:00.010Z,81.00
